Keno, OR

7:07 PM PDT on September 14, 2014 (GMT -0700)
Beautiful Downtown | Change Station
CLOSE
Current Station
Personal Weather Station
Location: Keno, OR
Elevation: 4090 ft
Nearby Weather Stations

Elev 4090 ft 42.12 °N, 121.93 °W | Updated 2 minutes ago

Clear
Clear
78.8 °F
Feels Like 78 °F
N
0.0
Wind Variable Wind from WNW
Gusts 0.0 mph

Today
High -- | Low -- °F
--% Chance of Precip.
Yesterday
High -- | Low -- °F
Precip. -- in
6:47 AM 7:19 PM
Waning Gibbous, 60% visible
Pressure 29.86 in
Visibility 10.0 miles
Clouds Clear
Heat Index 78 °F
Dew Point 36 °F
Humidity 21%
Rainfall 0.00 in
Snow Depth 0 in , 0 in , 1 in
UV 0 out of 12
Pollen 4.20 out of 12
Air Quality Not available.
Flu Activity Not available.
METAR KLMT 150153Z 00000KT 10SM CLR 25/06 A2995 RMK AO2 SLP110 T02500056

More Conditions Fewer Conditions

Pressure 29.86 in
Visibility 10.0 miles
Clouds Clear
Heat Index 78 °F
Dew Point 36 °F
Humidity 21%
Rainfall 0.00 in
Snow Depth 0 in , 0 in , 1 in
UV 0 out of 12
Pollen 4.20 out of 12
Air Quality Not available.
Flu Activity Not available.
METAR KLMT 150153Z 00000KT 10SM CLR 25/06 A2995 RMK AO2 SLP110 T02500056

More Conditions Fewer Conditions

10-Day Weather Forecast

Almanac

Astronomy

Sep. 14, 2014 Rise Set
Actual Time 6:47 AM PDT 7:19 PM PDT
Civil Twilight 6:19 AM PDT 7:47 PM PDT
Nautical Twilight 5:45 AM PDT 8:20 PM PDT
Astronomical Twilight 5:11 AM PDT 8:54 PM PDT
Moon 11:09 PM PDT (9/14) 1:04 PM PDT (9/14)
Length of Visible Light 13h 28m
Length of Day
12h 32m
Tomorrow will be 2m 49s shorter.
Waning Gibbous, 60% of the Moon is Illuminated
Today
Waning Gibbous
Sep 15
Last Quarter
Sep 24
New
Oct 1
First Quarter
Oct 8
Full

Today's Extremes

State Highs State Lows

Community

WunderPhotos

Upload Photos

1,753,371 photos uploaded!

Nearby

Snow Depth

Station Depth Elevation
Lucky Strike 0 in 5050 ft
Clackamas Lake 0 in 3400 ft
Greenpoint 1 in 3200 ft
Fish Lake 0 in 4665 ft
Roaring River 0 in 4900 ft

Earthquake Activity

City Distance Mag. Time & Date
No recent earthquake activity has been reported nearby.
Minimum magnitude displayed is 2.5.

Coastal Water Temperatures

Place Temperature
No Stations Reporting

Nearby Weather Stations